San Juan, PR

5:36 PM AST on September 03, 2015 (GMT -0400)
Condado, Calle Earle, At The Ocean | | Change Station
CLOSE
Current Station
Personal Weather Station
Location: San Juan, SAN JUAN
Elevation: 10 ft
Nearby Weather Stations

Elev 10 ft 18.46 °N, 66.07 °W | Updated 2 seconds ago

Scattered Clouds
Scattered Clouds
84.5 °F
Feels Like 94 °F
N
4.0
Wind Variable Wind from WNW
Gusts 5.0 mph

Today
High -- | Low -- °F
--% Chance of Precip.
Yesterday
High -- | Low -- °F
Precip. -- in
6:10 AM 6:37 PM
Waning Gibbous, 66% visible
Pressure 29.94 in
Visibility 10.0 miles
Clouds Scattered Clouds 3800 ft
Scattered Clouds 5000 ft
Heat Index 94 °F
Dew Point 76 °F
Humidity 76%
Rainfall 0.00 in
Snow Depth Not available.
UV 2 out of 12
Pollen Not available.
Air Quality Not available.
Flu Activity Not available.
METAR TJSJ 032056Z 07011KT 10SM SCT038 SCT050 30/23 A2995 RMK AO2 SLP139 VCSH S SW W T03000233 55001
Pressure 29.94 in
Visibility 10.0 miles
Clouds Scattered Clouds 3800 ft
Scattered Clouds 5000 ft
Heat Index 94 °F
Dew Point 76 °F
Humidity 76%
Rainfall 0.00 in
Snow Depth Not available.
UV 2 out of 12
Pollen Not available.
Air Quality Not available.
Flu Activity Not available.
METAR TJSJ 032056Z 07011KT 10SM SCT038 SCT050 30/23 A2995 RMK AO2 SLP139 VCSH S SW W T03000233 55001

10-Day Weather Forecast

×

Almanac

Astronomy

Sep. 03, 2015 Rise Set
Actual Time
Civil Twilight
Nautical Twilight
Astronomical Twilight
Moon
Length of Visible Light
Length of Day
Tomorrow will be .
, % of the Moon is Illuminated

Today's Extremes

State Highs State Lows

Community

WunderPhotos

Upload Photos

1,852,043 photos uploaded!

WunderBlogs® & News

Nearby

Air Quality

  Air Quality AQ Index Pollutant
Not available.

Snow Depth

Station Depth Elevation

Earthquake Activity

City Distance Mag. Time & Date
Minimum magnitude displayed is 2.5.

Coastal Water Temperatures

Place Temperature

Stations

Nearby Weather Stations

Station Location Temp. Windchill Dew Point Humidity Wind Precip. Elev Updated Type